Terminal Aerodrome Forecast
Issued by NWS

Home | Current Version | Previous Version | Text Only | Print | Product List | Glossary On
Versions: 1 2 3 4 5 6 7 8 9 10 11 12
000
FTUS46 KLOX 242345
TAFPMD
TAF
KPMD 242345Z 2500/2524 26015G25KT P6SM SKC
     FM250200 24012KT P6SM SKC
     FM250700 20008KT P6SM SKC
     FM251000 VRB04KT P6SM SKC
     FM251700 24012KT P6SM SKC
     FM252000 25015G25KT P6SM SKC
     FM252300 25020G28KT P6SM SKC=

USA.gov is the U.S. government's official web portal to all federal, state and local government web resources and services.